Time;durP1;ratioP1;P1;durP2;ratioP2;P2;SDS_P1;SDS_P2;PMS_P1;PMS_P2;Temp;Humidity;BMP_temperature;BMP_pressure;BME280_temperature;BME280_humidity;BME280_pressure;Samples;Min_cycle;Max_cycle;Signal;HPM_P1;HPM_P2
2023/04/27 00:01:49;;;;;;;;;;;8.50;99.90;;;;;;7336372;19;110792;-74
2023/04/27 00:04:16;;;;;;;;;;;8.40;99.90;;;;;;7336922;19;112088;-75
2023/04/27 00:06:44;;;;;;;;;;;8.30;99.90;;;;;;7341847;19;109606;-74
2023/04/27 00:09:10;;;;;;;;;;;8.20;99.90;;;;;;7338780;19;109361;-75
2023/04/27 00:11:38;;;;;;;;;;;8.20;99.90;;;;;;7335114;19;109186;-74
2023/04/27 00:14:05;;;;;;;;;;;8.20;99.90;;;;;;7337277;19;111501;-74
2023/04/27 00:16:32;;;;;;;;;;;8.20;99.90;;;;;;7334609;19;109843;-74
2023/04/27 00:19:01;;;;;;;;;;;8.20;99.90;;;;;;7336791;19;109572;-75
2023/04/27 00:21:28;;;;;;;;;;;8.20;99.90;;;;;;7333828;19;110985;-74
2023/04/27 00:23:55;;;;;;;;;;;8.20;99.90;;;;;;7336267;19;109343;-74
2023/04/27 00:26:22;;;;;;;;;;;8.10;99.90;;;;;;7330053;19;109315;-75
2023/04/27 00:28:49;;;;;;;;;;;8.10;99.90;;;;;;7343238;19;110107;-75
2023/04/27 00:31:16;;;;;;;;;;;8.00;99.90;;;;;;7334084;19;110109;-74
2023/04/27 00:33:43;;;;;;;;;;;7.90;99.90;;;;;;7338126;19;110062;-74
2023/04/27 00:36:10;;;;;;;;;;;7.90;99.90;;;;;;7335668;19;109735;-75
2023/04/27 00:38:37;;;;;;;;;;;7.80;99.90;;;;;;7336423;19;111340;-75
2023/04/27 00:41:05;;;;;;;;;;;7.70;99.90;;;;;;7333167;19;110147;-74
2023/04/27 00:43:32;;;;;;;;;;;7.70;99.90;;;;;;7336672;19;109940;-74
2023/04/27 00:46:00;;;;;;;;;;;7.60;99.90;;;;;;7335616;19;110277;-74
2023/04/27 00:48:27;;;;;;;;;;;7.60;99.90;;;;;;7334839;19;110111;-75
2023/04/27 00:50:54;;;;;;;;;;;7.60;99.90;;;;;;7334022;19;111583;-74
2023/04/27 00:53:21;;;;;;;;;;;7.50;99.90;;;;;;7331590;19;113304;-75
2023/04/27 00:55:48;;;;;;;;;;;7.50;99.90;;;;;;7335366;19;109201;-74
2023/04/27 00:58:15;;;;;;;;;;;7.40;99.90;;;;;;7334438;19;109820;-75
2023/04/27 01:00:42;;;;;;;;;;;7.50;99.90;;;;;;7338428;19;110330;-75
2023/04/27 01:03:09;;;;;;;;;;;7.50;99.90;;;;;;7333021;19;111267;-75
2023/04/27 01:05:36;;;;;;;;;;;7.50;99.90;;;;;;7336946;19;110224;-75
2023/04/27 01:08:04;;;;;;;;;;;7.50;99.90;;;;;;7331843;19;111822;-74
2023/04/27 01:10:31;;;;;;;;;;;7.50;99.90;;;;;;7339169;19;109901;-75
2023/04/27 01:12:58;;;;;;;;;;;7.40;99.90;;;;;;7333402;19;111130;-74
2023/04/27 01:15:25;;;;;;;;;;;7.30;99.90;;;;;;7331162;19;110685;-74
2023/04/27 01:17:59;;;;;;;;;;;7.30;99.90;;;;;;7336150;19;110079;-74
2023/04/27 01:20:29;;;;;;;;;;;7.30;99.90;;;;;;7331811;19;112329;-76
2023/04/27 01:22:56;;;;;;;;;;;7.30;99.90;;;;;;7335671;19;110046;-74
2023/04/27 01:25:23;;;;;;;;;;;7.30;99.90;;;;;;7332213;19;109675;-75
2023/04/27 01:27:50;;;;;;;;;;;7.30;99.90;;;;;;7334876;19;111263;-74
2023/04/27 01:30:17;;;;;;;;;;;7.30;99.90;;;;;;7328750;19;110722;-75
2023/04/27 01:32:45;;;;;;;;;;;7.20;99.90;;;;;;7339301;19;109682;-75
2023/04/27 01:35:12;;;;;;;;;;;7.20;99.90;;;;;;7333555;19;109567;-74
2023/04/27 01:37:39;;;;;;;;;;;7.10;99.90;;;;;;7333770;19;109619;-74
2023/04/27 01:40:06;;;;;;;;;;;7.00;99.90;;;;;;7337155;19;110097;-74
2023/04/27 01:42:33;;;;;;;;;;;7.00;99.90;;;;;;7334979;19;111698;-74
2023/04/27 01:45:00;;;;;;;;;;;7.00;99.90;;;;;;7332273;19;109666;-74
2023/04/27 01:47:27;;;;;;;;;;;6.90;99.90;;;;;;7334894;19;110124;-75
2023/04/27 01:49:54;;;;;;;;;;;6.90;99.90;;;;;;7334010;19;109400;-74
2023/04/27 01:52:21;;;;;;;;;;;6.80;99.90;;;;;;7340058;19;109894;-76
2023/04/27 01:54:49;;;;;;;;;;;6.80;99.90;;;;;;7347268;19;110472;-75
2023/04/27 01:57:16;;;;;;;;;;;6.70;99.90;;;;;;7338741;19;109636;-75
2023/04/27 01:59:43;;;;;;;;;;;6.70;99.90;;;;;;7339563;19;111424;-75
2023/04/27 02:02:10;;;;;;;;;;;6.70;99.90;;;;;;7335551;19;112046;-75
2023/04/27 02:04:38;;;;;;;;;;;6.60;99.90;;;;;;7344394;19;109463;-79
2023/04/27 02:07:05;;;;;;;;;;;6.70;99.90;;;;;;7340123;19;113526;-79
2023/04/27 02:09:32;;;;;;;;;;;6.70;99.90;;;;;;7340087;19;109615;-79
2023/04/27 02:11:59;;;;;;;;;;;6.70;99.90;;;;;;7337481;19;110275;-77
2023/04/27 02:14:26;;;;;;;;;;;6.60;99.90;;;;;;7339890;19;114973;-75
2023/04/27 02:16:53;;;;;;;;;;;6.50;99.90;;;;;;7342801;19;109859;-76
2023/04/27 02:19:20;;;;;;;;;;;6.60;99.90;;;;;;7340796;19;111019;-75
2023/04/27 02:21:47;;;;;;;;;;;6.60;99.90;;;;;;7339349;19;109535;-75
2023/04/27 02:24:14;;;;;;;;;;;6.60;99.90;;;;;;7339592;19;109849;-75
2023/04/27 02:26:41;;;;;;;;;;;6.50;99.90;;;;;;7334592;19;112227;-75
2023/04/27 02:29:09;;;;;;;;;;;6.40;99.90;;;;;;7338390;19;109819;-75
2023/04/27 02:31:36;;;;;;;;;;;6.40;99.90;;;;;;7344543;19;110989;-74
2023/04/27 02:34:03;;;;;;;;;;;6.40;99.90;;;;;;7339930;19;111752;-75
2023/04/27 02:36:31;;;;;;;;;;;6.30;99.90;;;;;;7334479;19;109861;-74
2023/04/27 02:38:58;;;;;;;;;;;6.40;99.90;;;;;;7346054;19;110038;-74
2023/04/27 02:41:27;;;;;;;;;;;6.40;99.90;;;;;;7338350;19;110495;-75
2023/04/27 02:43:54;;;;;;;;;;;6.40;99.90;;;;;;7340525;19;110053;-74
2023/04/27 02:46:21;;;;;;;;;;;6.30;99.90;;;;;;7338892;19;113287;-75
2023/04/27 02:48:48;;;;;;;;;;;6.30;99.90;;;;;;7340873;19;110425;-74
2023/04/27 02:51:15;;;;;;;;;;;6.40;99.90;;;;;;7335684;19;110721;-75
2023/04/27 02:53:42;;;;;;;;;;;6.40;99.90;;;;;;7338085;19;110536;-79
2023/04/27 02:56:09;;;;;;;;;;;6.40;99.90;;;;;;7339569;19;109890;-78
2023/04/27 02:58:36;;;;;;;;;;;6.50;99.90;;;;;;7347313;19;109325;-78
2023/04/27 03:01:03;;;;;;;;;;;6.40;99.90;;;;;;7340569;19;109901;-75
2023/04/27 03:03:30;;;;;;;;;;;6.40;99.90;;;;;;7338015;19;111547;-75
2023/04/27 03:05:57;;;;;;;;;;;6.30;99.90;;;;;;7339498;19;111049;-75
2023/04/27 03:08:25;;;;;;;;;;;6.30;99.90;;;;;;7339643;19;111620;-75
2023/04/27 03:10:52;;;;;;;;;;;6.20;99.90;;;;;;7340367;19;110552;-76
2023/04/27 03:13:19;;;;;;;;;;;6.10;99.90;;;;;;7337614;19;111529;-74
2023/04/27 03:15:46;;;;;;;;;;;6.10;99.90;;;;;;7338290;19;109816;-75
2023/04/27 03:18:13;;;;;;;;;;;6.10;99.90;;;;;;7339685;19;111740;-75
2023/04/27 03:20:40;;;;;;;;;;;6.00;99.90;;;;;;7347305;19;110139;-74
2023/04/27 03:23:07;;;;;;;;;;;6.00;99.90;;;;;;7339504;19;109784;-74
2023/04/27 03:25:34;;;;;;;;;;;6.10;99.90;;;;;;7336943;19;112672;-77
2023/04/27 03:28:01;;;;;;;;;;;6.10;99.90;;;;;;7342556;19;112840;-75
2023/04/27 03:30:28;;;;;;;;;;;6.10;99.90;;;;;;7339092;19;109670;-79
2023/04/27 03:32:55;;;;;;;;;;;6.10;99.90;;;;;;7340003;19;110809;-79
2023/04/27 03:35:23;;;;;;;;;;;6.10;99.90;;;;;;7338445;19;110137;-91
2023/04/27 03:37:52;;;;;;;;;;;6.00;99.90;;;;;;7339622;19;109396;-91
2023/04/27 03:40:19;;;;;;;;;;;6.00;99.90;;;;;;7340431;19;110957;-90
2023/04/27 03:42:46;;;;;;;;;;;6.00;99.90;;;;;;7342884;19;109459;-90
2023/04/27 03:45:15;;;;;;;;;;;6.00;99.90;;;;;;7340588;19;111353;-90
2023/04/27 03:47:42;;;;;;;;;;;5.90;99.90;;;;;;7339508;19;109275;-90
2023/04/27 03:50:09;;;;;;;;;;;5.90;99.90;;;;;;7335692;19;110466;-90
2023/04/27 03:52:36;;;;;;;;;;;6.00;99.90;;;;;;7335463;19;113281;-90
2023/04/27 03:55:04;;;;;;;;;;;5.90;99.90;;;;;;7338230;19;109952;-74
2023/04/27 03:57:31;;;;;;;;;;;5.90;99.90;;;;;;7333880;19;111901;-73
2023/04/27 03:59:58;;;;;;;;;;;5.90;99.90;;;;;;7339777;19;110301;-75
2023/04/27 04:02:25;;;;;;;;;;;5.80;99.90;;;;;;7336226;19;110733;-74
2023/04/27 04:04:52;;;;;;;;;;;5.70;99.90;;;;;;7341091;19;109661;-74
2023/04/27 04:07:20;;;;;;;;;;;5.70;99.90;;;;;;7332329;19;110065;-74
2023/04/27 04:09:47;;;;;;;;;;;5.60;99.90;;;;;;7337452;19;111329;-74
2023/04/27 04:12:14;;;;;;;;;;;5.60;99.90;;;;;;7335820;19;110313;-73
2023/04/27 04:14:41;;;;;;;;;;;5.50;99.90;;;;;;7335094;19;110122;-74
2023/04/27 04:17:09;;;;;;;;;;;5.50;99.90;;;;;;7332397;19;109383;-74
2023/04/27 04:19:36;;;;;;;;;;;5.50;99.90;;;;;;7335025;19;111584;-74
2023/04/27 04:22:03;;;;;;;;;;;5.50;99.90;;;;;;7335445;19;110894;-74
2023/04/27 04:24:30;;;;;;;;;;;5.50;99.90;;;;;;7337388;19;109879;-74
2023/04/27 04:26:57;;;;;;;;;;;5.40;99.90;;;;;;7342265;19;111393;-75
2023/04/27 04:29:24;;;;;;;;;;;5.50;99.90;;;;;;7333957;19;109732;-75
2023/04/27 04:31:51;;;;;;;;;;;5.50;99.90;;;;;;7336009;19;111022;-75
2023/04/27 04:34:18;;;;;;;;;;;5.50;99.90;;;;;;7337481;19;110791;-74
2023/04/27 04:36:51;;;;;;;;;;;5.60;99.90;;;;;;7335356;19;113427;-74
2023/04/27 04:39:21;;;;;;;;;;;5.50;99.90;;;;;;7338636;19;111141;-74
2023/04/27 04:41:49;;;;;;;;;;;5.50;99.90;;;;;;7335070;19;111565;-74
2023/04/27 04:44:16;;;;;;;;;;;5.50;99.90;;;;;;7336799;19;110290;-74
2023/04/27 04:46:46;;;;;;;;;;;5.60;99.90;;;;;;7334911;19;110090;-74
2023/04/27 04:49:16;;;;;;;;;;;5.60;99.90;;;;;;7339620;19;109749;-75
2023/04/27 04:51:44;;;;;;;;;;;5.70;99.90;;;;;;7336089;19;110353;-73
2023/04/27 04:54:11;;;;;;;;;;;5.70;99.90;;;;;;7335580;19;111105;-74
2023/04/27 04:56:38;;;;;;;;;;;5.80;99.90;;;;;;7335317;19;109603;-74
2023/04/27 04:59:05;;;;;;;;;;;5.90;99.90;;;;;;7332169;19;110117;-74
2023/04/27 05:01:32;;;;;;;;;;;5.90;99.90;;;;;;7336487;19;109422;-74
2023/04/27 05:03:59;;;;;;;;;;;6.00;99.90;;;;;;7334061;19;111248;-74
2023/04/27 05:06:27;;;;;;;;;;;6.00;99.90;;;;;;7336470;19;110109;-72
2023/04/27 05:08:54;;;;;;;;;;;6.10;99.90;;;;;;7343476;19;109723;-73
2023/04/27 05:11:21;;;;;;;;;;;6.10;99.90;;;;;;7335349;19;110291;-73
2023/04/27 05:13:48;;;;;;;;;;;6.20;99.90;;;;;;7333425;19;111263;-73
2023/04/27 05:16:15;;;;;;;;;;;6.20;99.90;;;;;;7335150;19;110430;-74
2023/04/27 05:18:42;;;;;;;;;;;6.30;99.90;;;;;;7334057;19;111140;-73
2023/04/27 05:21:16;;;;;;;;;;;6.30;99.90;;;;;;7335656;19;110292;-73
2023/04/27 05:23:43;;;;;;;;;;;6.30;99.90;;;;;;7332082;19;109709;-73
2023/04/27 05:26:14;;;;;;;;;;;6.40;99.90;;;;;;7331307;19;110428;-74
2023/04/27 05:28:41;;;;;;;;;;;6.50;99.90;;;;;;7339472;19;110767;-73
2023/04/27 05:31:08;;;;;;;;;;;6.50;99.90;;;;;;7337925;19;110247;-73
2023/04/27 05:33:35;;;;;;;;;;;6.60;99.90;;;;;;7331448;19;109845;-73
2023/04/27 05:36:02;;;;;;;;;;;6.60;99.90;;;;;;7336117;19;110004;-73
2023/04/27 05:38:29;;;;;;;;;;;6.70;99.90;;;;;;7335049;19;111340;-73
2023/04/27 05:40:57;;;;;;;;;;;6.70;99.90;;;;;;7332571;19;110373;-74
2023/04/27 05:43:27;;;;;;;;;;;6.80;99.90;;;;;;7335633;19;110254;-73
2023/04/27 05:45:54;;;;;;;;;;;6.80;99.90;;;;;;7335425;19;109846;-75
2023/04/27 05:48:21;;;;;;;;;;;6.90;99.90;;;;;;7333751;19;109952;-74
2023/04/27 05:50:48;;;;;;;;;;;7.00;99.90;;;;;;7331600;19;110289;-76
2023/04/27 05:53:16;;;;;;;;;;;7.10;99.90;;;;;;7336343;19;110625;-76
2023/04/27 05:55:43;;;;;;;;;;;7.20;99.90;;;;;;7331969;19;110493;-75
2023/04/27 05:58:10;;;;;;;;;;;7.20;99.90;;;;;;7333114;19;112251;-77
2023/04/27 06:00:37;;;;;;;;;;;7.30;99.90;;;;;;7333114;19;109676;-76
2023/04/27 06:03:04;;;;;;;;;;;7.40;99.90;;;;;;7335050;19;109489;-75
2023/04/27 06:05:33;;;;;;;;;;;7.50;99.90;;;;;;7334814;19;111397;-74
2023/04/27 06:08:00;;;;;;;;;;;7.60;99.90;;;;;;7333435;19;109415;-74
2023/04/27 06:10:27;;;;;;;;;;;7.70;99.90;;;;;;7332914;19;109600;-74
2023/04/27 06:12:54;;;;;;;;;;;7.70;99.90;;;;;;7331111;19;110592;-74
2023/04/27 06:15:21;;;;;;;;;;;7.80;99.90;;;;;;7337321;19;110536;-74
2023/04/27 06:17:48;;;;;;;;;;;7.90;99.90;;;;;;7334523;19;111562;-73
2023/04/27 06:20:15;;;;;;;;;;;8.00;99.90;;;;;;7332296;19;109387;-74
2023/04/27 06:22:42;;;;;;;;;;;8.10;99.90;;;;;;7332264;19;112678;-74
2023/04/27 06:25:10;;;;;;;;;;;8.20;99.90;;;;;;7332679;19;111400;-74
2023/04/27 06:27:37;;;;;;;;;;;8.30;99.90;;;;;;7335537;19;110307;-76
2023/04/27 06:30:05;;;;;;;;;;;8.30;99.90;;;;;;7334378;19;111381;-75
2023/04/27 06:32:32;;;;;;;;;;;8.40;99.90;;;;;;7334192;19;110205;-75
2023/04/27 06:34:59;;;;;;;;;;;8.50;99.90;;;;;;7335828;19;109849;-75
2023/04/27 06:37:26;;;;;;;;;;;8.60;99.90;;;;;;7338301;19;111311;-75
2023/04/27 06:39:53;;;;;;;;;;;8.60;99.90;;;;;;7341225;19;109731;-73
2023/04/27 06:42:20;;;;;;;;;;;8.70;99.90;;;;;;7338068;19;110692;-75
2023/04/27 06:44:47;;;;;;;;;;;8.80;99.90;;;;;;7336363;19;110720;-75
2023/04/27 06:47:14;;;;;;;;;;;8.90;99.90;;;;;;7332653;19;109808;-75
2023/04/27 06:49:42;;;;;;;;;;;8.90;99.90;;;;;;7328583;19;110299;-75
2023/04/27 06:52:09;;;;;;;;;;;9.00;99.90;;;;;;7324605;19;110541;-75
2023/04/27 06:54:36;;;;;;;;;;;9.10;99.90;;;;;;7345480;19;112121;-75
2023/04/27 06:57:03;;;;;;;;;;;9.20;99.90;;;;;;7349851;19;109958;-76
2023/04/27 06:59:30;;;;;;;;;;;9.30;99.90;;;;;;7357157;19;109981;-73
2023/04/27 07:01:57;;;;;;;;;;;9.40;99.90;;;;;;7343618;19;109830;-75
2023/04/27 07:04:25;;;;;;;;;;;9.50;99.90;;;;;;7339818;19;110220;-74
2023/04/27 07:06:52;;;;;;;;;;;9.60;99.90;;;;;;7344701;19;109714;-75
2023/04/27 07:09:19;;;;;;;;;;;9.70;99.90;;;;;;7342425;19;110635;-76
2023/04/27 07:11:51;;;;;;;;;;;9.70;99.90;;;;;;7342430;19;110346;-76
2023/04/27 07:14:18;;;;;;;;;;;9.80;99.90;;;;;;7338580;19;109992;-77
2023/04/27 07:16:46;;;;;;;;;;;9.90;99.90;;;;;;7339568;19;109688;-76
2023/04/27 07:19:16;;;;;;;;;;;9.90;99.90;;;;;;7358289;19;110003;-87
2023/04/27 07:21:44;;;;;;;;;;;10.00;99.90;;;;;;7356977;19;109254;-89
2023/04/27 07:24:11;;;;;;;;;;;10.10;99.90;;;;;;7333899;19;109838;-75
2023/04/27 07:26:38;;;;;;;;;;;10.20;99.90;;;;;;7335981;19;109725;-74
2023/04/27 07:29:05;;;;;;;;;;;10.30;99.90;;;;;;7338349;19;109591;-75
2023/04/27 07:31:48;;;;;;;;;;;10.40;99.90;;;;;;7336879;19;110638;-75
2023/04/27 07:34:18;;;;;;;;;;;10.50;99.90;;;;;;7335006;19;112779;-74
2023/04/27 07:36:45;;;;;;;;;;;10.60;99.90;;;;;;7336583;19;110957;-75
2023/04/27 07:39:12;;;;;;;;;;;10.70;99.90;;;;;;7328292;19;113578;-75
2023/04/27 07:41:39;;;;;;;;;;;10.70;99.90;;;;;;7337559;19;109682;-75
2023/04/27 07:44:07;;;;;;;;;;;10.80;99.90;;;;;;7331375;19;111717;-75
2023/04/27 07:46:34;;;;;;;;;;;10.80;99.90;;;;;;7330718;19;110961;-74
2023/04/27 07:49:01;;;;;;;;;;;10.90;99.90;;;;;;7333371;19;110135;-74
2023/04/27 07:51:28;;;;;;;;;;;11.00;99.90;;;;;;7334917;19;110429;-73
2023/04/27 07:53:55;;;;;;;;;;;11.10;99.90;;;;;;7341196;19;109364;-75
2023/04/27 07:56:22;;;;;;;;;;;11.20;99.90;;;;;;7336246;19;110022;-75
2023/04/27 07:58:49;;;;;;;;;;;11.30;99.90;;;;;;7337898;19;111179;-75
2023/04/27 08:01:16;;;;;;;;;;;11.40;99.90;;;;;;7335918;19;109471;-75
2023/04/27 08:03:46;;;;;;;;;;;11.50;99.90;;;;;;7339265;19;110134;-75
2023/04/27 08:06:17;;;;;;;;;;;11.60;99.90;;;;;;7336162;19;109975;-75
2023/04/27 08:08:45;;;;;;;;;;;11.60;99.90;;;;;;7338623;19;110298;-75
2023/04/27 08:11:12;;;;;;;;;;;11.70;99.90;;;;;;7335926;19;111551;-75
2023/04/27 08:13:39;;;;;;;;;;;11.70;99.90;;;;;;7335091;19;110302;-75
2023/04/27 08:16:06;;;;;;;;;;;11.80;99.90;;;;;;7337485;19;109490;-76
2023/04/27 08:18:33;;;;;;;;;;;11.90;99.90;;;;;;7335866;19;110232;-73
2023/04/27 08:21:00;;;;;;;;;;;11.90;99.90;;;;;;7338337;19;110692;-73
2023/04/27 08:23:28;;;;;;;;;;;12.10;99.90;;;;;;7336052;19;112145;-74
2023/04/27 08:25:55;;;;;;;;;;;12.20;99.90;;;;;;7343252;19;112343;-74
2023/04/27 08:28:22;;;;;;;;;;;12.30;99.90;;;;;;7335163;19;113632;-74
2023/04/27 08:30:50;;;;;;;;;;;12.40;99.90;;;;;;7337432;19;110895;-74
2023/04/27 08:33:17;;;;;;;;;;;12.50;99.90;;;;;;7338019;19;109609;-67
2023/04/27 08:35:45;;;;;;;;;;;12.60;99.90;;;;;;7336930;19;110945;-72
2023/04/27 08:38:12;;;;;;;;;;;12.70;99.90;;;;;;7337309;19;111417;-72
2023/04/27 08:40:42;;;;;;;;;;;12.70;99.90;;;;;;7338084;19;109697;-72
2023/04/27 08:43:09;;;;;;;;;;;12.80;99.90;;;;;;7338354;19;109937;-71
2023/04/27 08:45:36;;;;;;;;;;;12.90;99.90;;;;;;7337124;19;113932;-72
2023/04/27 08:48:03;;;;;;;;;;;13.00;99.90;;;;;;7343276;19;109433;-71
2023/04/27 08:50:31;;;;;;;;;;;13.20;99.90;;;;;;7337892;19;110127;-71
2023/04/27 08:52:58;;;;;;;;;;;13.20;99.90;;;;;;7336461;19;109649;-72
2023/04/27 08:55:25;;;;;;;;;;;13.30;99.90;;;;;;7335537;19;109397;-72
2023/04/27 08:58:03;;;;;;;;;;;13.30;99.90;;;;;;7336410;19;110834;-71
2023/04/27 09:00:37;;;;;;;;;;;13.30;99.90;;;;;;7333873;19;110919;-73
2023/04/27 09:05:47;;;;;;;;;;;13.40;99.90;;;;;;7334460;19;110563;-88
2023/04/27 09:08:40;;;;;;;;;;;13.50;99.10;;;;;;7331818;19;109510;-87
2023/04/27 09:11:07;;;;;;;;;;;13.60;99.50;;;;;;7338379;19;111466;-88
2023/04/27 09:13:35;;;;;;;;;;;13.60;98.30;;;;;;7326866;19;109710;-87
2023/04/27 09:16:02;;;;;;;;;;;13.70;99.40;;;;;;7332352;19;110124;-87
2023/04/27 09:18:32;;;;;;;;;;;13.80;99.10;;;;;;7332576;19;111602;-86
2023/04/27 09:20:59;;;;;;;;;;;13.80;97.70;;;;;;7335695;19;110294;-86
2023/04/27 09:23:31;;;;;;;;;;;13.80;99.40;;;;;;7334613;19;110618;-86
2023/04/27 09:25:59;;;;;;;;;;;13.90;98.70;;;;;;7333844;19;111226;-86
2023/04/27 09:28:27;;;;;;;;;;;14.00;97.70;;;;;;7336539;19;110026;-86
2023/04/27 09:30:55;;;;;;;;;;;14.00;98.40;;;;;;7375824;19;109786;-87
2023/04/27 09:33:23;;;;;;;;;;;14.00;97.70;;;;;;7367610;19;108541;-87
2023/04/27 09:35:50;;;;;;;;;;;14.00;96.80;;;;;;7369421;19;110248;-89
2023/04/27 09:38:18;;;;;;;;;;;14.10;98.20;;;;;;7341764;19;110638;-72
2023/04/27 09:40:46;;;;;;;;;;;14.10;96.50;;;;;;7336722;19;109269;-72
2023/04/27 09:43:14;;;;;;;;;;;14.10;97.10;;;;;;7335605;19;111308;-73
2023/04/27 09:45:41;;;;;;;;;;;14.20;98.10;;;;;;7335481;19;112697;-72
2023/04/27 09:48:09;;;;;;;;;;;14.20;96.80;;;;;;7333459;19;109966;-72
2023/04/27 09:50:37;;;;;;;;;;;14.40;97.30;;;;;;7335140;19;109752;-72
2023/04/27 09:53:06;;;;;;;;;;;14.40;96.20;;;;;;7340407;19;111564;-74
2023/04/27 09:55:41;;;;;;;;;;;14.50;97.50;;;;;;7336107;19;109873;-74
2023/04/27 09:58:26;;;;;;;;;;;14.60;96.20;;;;;;7333470;19;110257;-72
2023/04/27 10:01:02;;;;;;;;;;;14.60;96.50;;;;;;7335204;19;109767;-71
2023/04/27 10:03:31;;;;;;;;;;;14.70;96.40;;;;;;7335409;19;110049;-72
2023/04/27 10:06:02;;;;;;;;;;;14.80;96.50;;;;;;7334666;19;110261;-72
2023/04/27 10:08:29;;;;;;;;;;;15.00;97.60;;;;;;7336088;19;109912;-72
2023/04/27 10:10:56;;;;;;;;;;;15.10;96.30;;;;;;7334419;19;109531;-72
2023/04/27 10:13:25;;;;;;;;;;;15.30;97.80;;;;;;7337961;19;110733;-73
2023/04/27 10:16:01;;;;;;;;;;;15.30;96.80;;;;;;7348561;19;110213;-72
2023/04/27 10:18:29;;;;;;;;;;;15.30;95.80;;;;;;7340280;19;110869;-72
2023/04/27 10:21:08;;;;;;;;;;;15.30;96.10;;;;;;7343510;19;109363;-72
2023/04/27 10:23:44;;;;;;;;;;;15.40;95.60;;;;;;7339882;19;109716;-72
2023/04/27 10:26:11;;;;;;;;;;;15.30;95.30;;;;;;7342279;19;111396;-72
2023/04/27 10:28:39;;;;;;;;;;;15.30;95.70;;;;;;7342253;19;109745;-72
2023/04/27 10:31:10;;;;;;;;;;;15.40;95.50;;;;;;7338617;19;111737;-72
2023/04/27 10:33:42;;;;;;;;;;;15.30;95.10;;;;;;7340242;19;110867;-72
2023/04/27 10:36:13;;;;;;;;;;;15.30;92.70;;;;;;7341298;19;109304;-72
2023/04/27 10:38:40;;;;;;;;;;;15.20;94.30;;;;;;7344559;19;109162;-73
2023/04/27 10:41:12;;;;;;;;;;;15.30;95.40;;;;;;7342057;19;109750;-72
2023/04/27 10:43:39;;;;;;;;;;;15.40;94.40;;;;;;7339467;19;111566;-72
2023/04/27 10:46:08;;;;;;;;;;;15.40;92.40;;;;;;7341870;19;111105;-72
2023/04/27 10:48:36;;;;;;;;;;;15.40;93.50;;;;;;7338304;19;110853;-72
2023/04/27 10:51:03;;;;;;;;;;;15.50;93.80;;;;;;7342276;19;110433;-73
2023/04/27 10:53:34;;;;;;;;;;;15.60;93.70;;;;;;7339512;19;110656;-73
2023/04/27 10:56:02;;;;;;;;;;;15.60;92.10;;;;;;7339902;19;110300;-71
2023/04/27 10:58:29;;;;;;;;;;;15.50;91.40;;;;;;7340393;19;110120;-69
2023/04/27 11:01:22;;;;;;;;;;;15.50;90.70;;;;;;7343735;19;110855;-69
2023/04/27 11:03:59;;;;;;;;;;;15.30;90.10;;;;;;7342696;19;109769;-70
2023/04/27 11:06:27;;;;;;;;;;;15.40;92.00;;;;;;7340026;19;112660;-69
2023/04/27 11:08:54;;;;;;;;;;;15.40;89.70;;;;;;7341399;19;110940;-70
2023/04/27 11:11:23;;;;;;;;;;;15.40;91.00;;;;;;7340301;19;109673;-69
2023/04/27 11:13:51;;;;;;;;;;;15.50;90.60;;;;;;7338157;19;111246;-69
2023/04/27 11:16:18;;;;;;;;;;;15.60;91.00;;;;;;7340845;19;109366;-69
2023/04/27 11:18:46;;;;;;;;;;;15.60;90.30;;;;;;7339846;19;109616;-70
2023/04/27 11:21:17;;;;;;;;;;;15.50;89.40;;;;;;7339699;19;111237;-69
2023/04/27 11:23:44;;;;;;;;;;;15.50;88.60;;;;;;7344525;19;110015;-69
2023/04/27 11:26:13;;;;;;;;;;;15.50;87.90;;;;;;7340384;19;111251;-72
2023/04/27 11:28:41;;;;;;;;;;;15.50;88.20;;;;;;7342476;19;109587;-71
2023/04/27 11:31:08;;;;;;;;;;;15.40;86.00;;;;;;7340762;19;109580;-76
2023/04/27 11:33:35;;;;;;;;;;;15.50;89.30;;;;;;7337973;19;110710;-73
2023/04/27 11:36:03;;;;;;;;;;;15.50;88.90;;;;;;7343751;19;109386;-87
2023/04/27 11:38:33;;;;;;;;;;;15.50;89.60;;;;;;7351058;19;109513;-87
2023/04/27 11:41:00;;;;;;;;;;;15.70;91.10;;;;;;7338772;19;112489;-69
2023/04/27 11:43:27;;;;;;;;;;;15.90;90.30;;;;;;7345404;19;109336;-69
2023/04/27 11:45:55;;;;;;;;;;;16.10;90.50;;;;;;7338064;19;111030;-69
2023/04/27 11:48:22;;;;;;;;;;;16.30;89.90;;;;;;7336599;19;111080;-70
2023/04/27 11:50:49;;;;;;;;;;;16.50;90.50;;;;;;7339769;19;109997;-69
2023/04/27 11:53:16;;;;;;;;;;;16.80;90.30;;;;;;7339921;19;110174;-69
2023/04/27 11:55:50;;;;;;;;;;;16.90;88.90;;;;;;7340089;19;110682;-72
2023/04/27 11:58:19;;;;;;;;;;;17.20;89.90;;;;;;7343276;19;109728;-68
2023/04/27 12:00:46;;;;;;;;;;;17.20;88.20;;;;;;7340452;19;111288;-71
2023/04/27 12:03:13;;;;;;;;;;;17.30;86.00;;;;;;7340884;19;110242;-70
2023/04/27 12:05:48;;;;;;;;;;;17.30;86.80;;;;;;7346203;19;110553;-68
2023/04/27 12:08:16;;;;;;;;;;;17.20;84.80;;;;;;7341141;19;109362;-69
2023/04/27 12:10:43;;;;;;;;;;;17.30;81.80;;;;;;7340280;19;109384;-70
2023/04/27 12:13:11;;;;;;;;;;;17.30;81.70;;;;;;7339059;19;110251;-69
2023/04/27 12:15:38;;;;;;;;;;;17.30;84.30;;;;;;7338758;19;112180;-69
2023/04/27 12:18:05;;;;;;;;;;;17.50;83.80;;;;;;7338749;19;110190;-69
2023/04/27 12:20:33;;;;;;;;;;;17.60;84.50;;;;;;7339174;19;110544;-69
2023/04/27 12:23:00;;;;;;;;;;;17.80;83.70;;;;;;7336442;19;110212;-69
2023/04/27 12:25:27;;;;;;;;;;;18.00;84.50;;;;;;7336951;19;110233;-69
2023/04/27 12:27:54;;;;;;;;;;;17.90;78.70;;;;;;7341560;19;111803;-69
2023/04/27 12:30:22;;;;;;;;;;;18.00;81.80;;;;;;7337479;19;110563;-69
2023/04/27 12:32:49;;;;;;;;;;;18.00;79.10;;;;;;7336520;19;110261;-70
2023/04/27 12:35:17;;;;;;;;;;;18.00;77.90;;;;;;7336443;19;110404;-70
2023/04/27 12:37:44;;;;;;;;;;;18.00;78.00;;;;;;7334530;19;112967;-69
2023/04/27 12:40:11;;;;;;;;;;;18.10;79.20;;;;;;7335362;19;112189;-70
2023/04/27 12:42:38;;;;;;;;;;;18.20;78.60;;;;;;7336233;19;109802;-71
2023/04/27 12:45:06;;;;;;;;;;;18.40;82.20;;;;;;7335163;19;110785;-69
2023/04/27 12:47:33;;;;;;;;;;;18.50;79.80;;;;;;7336044;19;111324;-70
2023/04/27 12:50:04;;;;;;;;;;;18.50;77.30;;;;;;7341842;19;109684;-70
2023/04/27 12:52:31;;;;;;;;;;;18.60;76.90;;;;;;7334062;19;111762;-70
2023/04/27 12:54:58;;;;;;;;;;;18.60;75.20;;;;;;7334709;19;110617;-69
2023/04/27 12:57:25;;;;;;;;;;;18.60;77.10;;;;;;7334212;19;109289;-68
2023/04/27 12:59:52;;;;;;;;;;;18.80;79.80;;;;;;7332799;19;110139;-68
2023/04/27 13:02:20;;;;;;;;;;;19.10;79.20;;;;;;7334660;19;109948;-68
2023/04/27 13:04:48;;;;;;;;;;;19.30;82.10;;;;;;7336066;19;111631;-68
2023/04/27 13:07:15;;;;;;;;;;;19.40;76.70;;;;;;7336275;19;110602;-68
2023/04/27 13:09:42;;;;;;;;;;;19.60;80.10;;;;;;7335455;19;110095;-68
2023/04/27 13:12:09;;;;;;;;;;;19.70;73.60;;;;;;7341573;19;112379;-69
2023/04/27 13:14:36;;;;;;;;;;;19.70;80.30;;;;;;7336902;19;112993;-68
2023/04/27 13:17:03;;;;;;;;;;;20.00;81.50;;;;;;7334194;19;111089;-68
2023/04/27 13:19:30;;;;;;;;;;;20.20;79.20;;;;;;7335557;19;111243;-69
2023/04/27 13:21:57;;;;;;;;;;;20.30;78.70;;;;;;7334905;19;109448;-64
2023/04/27 13:24:24;;;;;;;;;;;20.40;75.50;;;;;;7332732;19;110649;-66
2023/04/27 13:26:51;;;;;;;;;;;20.50;75.70;;;;;;7333609;19;111320;-67
2023/04/27 13:29:18;;;;;;;;;;;20.60;73.40;;;;;;7333519;19;110243;-65
2023/04/27 13:31:45;;;;;;;;;;;20.70;73.90;;;;;;7339139;19;109704;-64
2023/04/27 13:34:13;;;;;;;;;;;20.60;69.90;;;;;;7335436;19;109542;-68
2023/04/27 13:36:40;;;;;;;;;;;20.50;73.40;;;;;;7338501;19;110102;-67
2023/04/27 13:39:07;;;;;;;;;;;20.50;72.60;;;;;;7332397;19;111777;-67
2023/04/27 13:41:34;;;;;;;;;;;20.60;69.30;;;;;;7336614;19;111073;-68
2023/04/27 13:44:02;;;;;;;;;;;20.50;72.60;;;;;;7332555;19;110227;-67
2023/04/27 13:46:29;;;;;;;;;;;20.60;71.10;;;;;;7336402;19;110147;-67
2023/04/27 13:48:56;;;;;;;;;;;20.80;73.10;;;;;;7341153;19;110294;-68
2023/04/27 13:51:23;;;;;;;;;;;20.80;67.00;;;;;;7341795;19;110182;-72
2023/04/27 13:53:50;;;;;;;;;;;20.60;71.50;;;;;;7349459;19;111140;-75
2023/04/27 13:56:17;;;;;;;;;;;20.40;71.00;;;;;;7343664;19;110867;-70
2023/04/27 13:58:45;;;;;;;;;;;20.50;70.90;;;;;;7344130;19;110966;-74
2023/04/27 14:01:12;;;;;;;;;;;20.50;68.50;;;;;;7342397;19;109656;-73
2023/04/27 14:03:39;;;;;;;;;;;20.40;71.80;;;;;;7342245;19;110971;-66
2023/04/27 14:06:09;;;;;;;;;;;20.40;66.80;;;;;;7340562;19;110161;-67
2023/04/27 14:08:36;;;;;;;;;;;20.30;69.10;;;;;;7343471;19;109615;-67
2023/04/27 14:11:04;;;;;;;;;;;20.20;70.70;;;;;;7341774;19;109761;-66
2023/04/27 14:13:31;;;;;;;;;;;20.30;70.60;;;;;;7340484;19;110206;-66
2023/04/27 14:15:58;;;;;;;;;;;20.50;72.50;;;;;;7348680;19;109568;-66
2023/04/27 14:18:25;;;;;;;;;;;20.60;68.60;;;;;;7338779;19;110798;-66